createdAt,value
2022-11-08T00:03:03.033Z,8.99
2022-11-08T00:08:24.867Z,9.03
2022-11-08T00:13:46.664Z,9.06
2022-11-08T00:19:08.483Z,9.17
2022-11-08T00:24:30.300Z,9.15
2022-11-08T00:29:52.093Z,9.14
2022-11-08T00:35:13.947Z,9.18
2022-11-08T00:40:35.781Z,9.09
2022-11-08T00:45:57.774Z,9.13
2022-11-08T00:51:19.680Z,9.21
2022-11-08T00:56:41.834Z,9.22
2022-11-08T01:02:03.794Z,9.24
2022-11-08T01:07:25.921Z,9.09
2022-11-08T01:12:47.745Z,9.17
2022-11-08T01:18:11.095Z,9.10
2022-11-08T01:23:33.527Z,9.14
2022-11-08T01:28:56.451Z,9.20
2022-11-08T01:34:18.288Z,9.22
2022-11-08T01:39:40.087Z,9.21
2022-11-08T01:45:08.387Z,9.24
2022-11-08T01:50:30.355Z,9.26
2022-11-08T01:55:52.887Z,9.32
2022-11-08T02:01:15.209Z,9.36
2022-11-08T02:06:39.099Z,9.35
2022-11-08T02:12:00.924Z,9.38
2022-11-08T02:17:22.762Z,9.32
2022-11-08T02:23:04.179Z,9.34
2022-11-08T02:28:26.299Z,9.33
2022-11-08T02:33:49.326Z,9.35
2022-11-08T02:39:11.166Z,9.37
2022-11-08T02:44:32.997Z,9.36
2022-11-08T02:49:54.826Z,9.37
2022-11-08T02:55:16.633Z,9.43
2022-11-08T03:00:39.596Z,9.52
2022-11-08T03:06:01.461Z,9.42
2022-11-08T03:11:23.265Z,9.55
2022-11-08T03:16:45.138Z,9.55
2022-11-08T03:22:06.969Z,9.57
2022-11-08T03:27:29.078Z,9.59
2022-11-08T03:32:50.868Z,9.68
2022-11-08T03:38:12.672Z,9.66
2022-11-08T03:43:34.729Z,9.67
2022-11-08T03:48:56.539Z,9.56
2022-11-08T03:54:18.317Z,9.56
2022-11-08T03:59:40.101Z,9.55
2022-11-08T04:05:02.060Z,9.60
2022-11-08T04:10:23.937Z,9.63
2022-11-08T04:15:46.952Z,9.68
2022-11-08T04:21:16.548Z,9.64
2022-11-08T04:26:39.631Z,9.59
2022-11-08T04:32:01.449Z,9.65
2022-11-08T04:37:23.362Z,9.68
2022-11-08T04:42:45.202Z,9.61
2022-11-08T04:48:07.047Z,9.59
2022-11-08T04:53:29.120Z,9.63
2022-11-08T04:58:53.937Z,9.58
2022-11-08T05:04:15.848Z,9.55
2022-11-08T05:09:37.641Z,9.44
2022-11-08T05:14:59.508Z,9.31
2022-11-08T05:20:21.342Z,9.17
2022-11-08T05:25:43.177Z,9.10
2022-11-08T05:31:05.147Z,8.99
2022-11-08T05:36:28.133Z,8.92
2022-11-08T05:41:50.034Z,8.83
2022-11-08T05:47:11.848Z,8.81
2022-11-08T05:52:33.666Z,8.83
2022-11-08T05:57:55.498Z,8.75
2022-11-08T06:03:20.923Z,9.01
2022-11-08T06:08:49.992Z,9.86
2022-11-08T06:14:13.464Z,11.56
2022-11-08T06:19:35.328Z,14.11
2022-11-08T06:24:58.609Z,13.93
2022-11-08T06:30:20.476Z,14.76
2022-11-08T06:35:42.731Z,13.31
2022-11-08T06:41:04.589Z,13.09
2022-11-08T06:46:26.668Z,13.89
2022-11-08T06:51:48.498Z,13.94
2022-11-08T06:57:10.337Z,12.53
2022-11-08T07:02:32.295Z,11.82
2022-11-08T07:07:54.522Z,11.53
2022-11-08T07:13:16.621Z,11.18
2022-11-08T07:18:38.866Z,11.14
2022-11-08T07:24:00.747Z,11.11
2022-11-08T07:29:22.650Z,11.09
2022-11-08T07:34:44.496Z,11.45
2022-11-08T07:40:07.109Z,12.08
2022-11-08T07:45:28.939Z,14.54
2022-11-08T07:50:51.521Z,21.89
2022-11-08T07:56:13.391Z,23.37
2022-11-08T08:01:35.979Z,25.63
2022-11-08T08:06:58.961Z,26.07
2022-11-08T08:12:20.774Z,27.10
2022-11-08T08:17:42.575Z,26.90
2022-11-08T08:23:04.803Z,27.67
2022-11-08T08:28:26.611Z,28.78
2022-11-08T08:33:48.462Z,28.46
2022-11-08T08:39:10.406Z,29.61
2022-11-08T08:44:32.211Z,27.92
2022-11-08T08:49:54.441Z,28.53
2022-11-08T08:55:16.595Z,28.52
2022-11-08T09:06:20.287Z,28.53
2022-11-08T09:11:43.141Z,26.24
2022-11-08T09:17:04.962Z,27.81
2022-11-08T09:22:26.797Z,27.96
2022-11-08T09:27:48.673Z,27.10
2022-11-08T09:33:10.549Z,26.90
2022-11-08T09:38:32.732Z,27.86
2022-11-08T09:44:00.284Z,22.88
2022-11-08T09:49:42.202Z,19.98
2022-11-08T09:55:28.537Z,19.27
2022-11-08T10:00:50.447Z,18.52
2022-11-08T10:06:30.666Z,17.73
2022-11-08T10:12:00.321Z,17.42
2022-11-08T10:17:24.947Z,16.94
2022-11-08T10:23:05.435Z,16.78
2022-11-08T10:28:36.721Z,16.34
2022-11-08T10:34:00.745Z,16.32
2022-11-08T10:39:38.092Z,16.45
2022-11-08T10:45:00.225Z,16.19
2022-11-08T10:50:50.007Z,16.27
2022-11-08T10:56:11.806Z,16.27
2022-11-08T11:01:33.668Z,16.43
2022-11-08T11:07:02.098Z,16.33
2022-11-08T11:12:24.159Z,16.41
2022-11-08T11:17:46.818Z,16.49
2022-11-08T11:23:11.313Z,16.48
2022-11-08T11:28:34.105Z,16.45
2022-11-08T11:33:56.177Z,16.43
2022-11-08T11:39:47.593Z,16.39
2022-11-08T11:45:17.514Z,16.26
2022-11-08T11:50:44.286Z,16.12
2022-11-08T11:56:24.805Z,16.13
2022-11-08T12:02:08.019Z,16.16
2022-11-08T12:07:31.421Z,16.05
2022-11-08T12:13:22.962Z,15.73
2022-11-08T12:18:49.430Z,15.88
2022-11-08T12:24:26.641Z,16.01
2022-11-08T12:30:35.893Z,15.99
2022-11-08T12:36:11.734Z,16.05
2022-11-08T12:42:01.847Z,15.94
2022-11-08T12:47:39.302Z,16.01
2022-11-08T12:53:20.960Z,15.94
2022-11-08T12:58:46.031Z,15.88
2022-11-08T13:04:17.643Z,15.87
2022-11-08T13:09:57.689Z,15.80
2022-11-08T13:15:22.511Z,15.85
2022-11-08T13:20:48.863Z,15.82
2022-11-08T13:26:20.120Z,15.71
2022-11-08T13:31:44.970Z,15.56
2022-11-08T13:37:37.264Z,15.61
2022-11-08T13:43:19.612Z,15.50
2022-11-08T13:48:41.790Z,15.42
2022-11-08T13:54:23.841Z,15.41
2022-11-08T13:59:45.607Z,15.35
2022-11-08T14:05:22.708Z,15.33
2022-11-08T14:11:05.712Z,15.17
2022-11-08T14:16:33.349Z,15.05
2022-11-08T14:21:58.091Z,14.99
2022-11-08T14:27:38.299Z,14.86
2022-11-08T14:33:27.623Z,14.76
2022-11-08T14:38:59.164Z,14.61
2022-11-08T14:44:22.137Z,14.46
2022-11-08T14:49:47.780Z,14.34
2022-11-08T14:55:12.214Z,14.23
2022-11-08T15:00:34.069Z,14.08
2022-11-08T15:06:00.986Z,13.92
2022-11-08T15:11:30.721Z,13.83
2022-11-08T15:16:58.524Z,13.74
2022-11-08T15:22:30.281Z,13.63
2022-11-08T15:28:13.207Z,13.64
2022-11-08T15:33:37.441Z,13.58
2022-11-08T15:39:00.374Z,13.52
2022-11-08T15:44:24.580Z,13.44
2022-11-08T15:49:46.388Z,13.35
2022-11-08T15:55:08.712Z,13.25
2022-11-08T16:00:33.269Z,13.22
2022-11-08T16:05:55.682Z,13.20
2022-11-08T16:11:21.516Z,13.11
2022-11-08T16:16:43.974Z,12.98
2022-11-08T16:22:05.791Z,12.90
2022-11-08T16:27:27.625Z,12.78
2022-11-08T16:32:49.506Z,12.68
2022-11-08T16:38:11.346Z,12.59
2022-11-08T16:43:33.656Z,12.40
2022-11-08T16:48:58.073Z,12.22
2022-11-08T16:54:21.756Z,12.18
2022-11-08T16:59:43.584Z,12.08
2022-11-08T17:05:05.751Z,12.07
2022-11-08T17:10:29.680Z,11.91
2022-11-08T17:15:51.600Z,11.83
2022-11-08T17:21:43.172Z,11.73
2022-11-08T17:26:57.021Z,11.69
2022-11-08T17:32:18.885Z,11.59
2022-11-08T17:37:41.001Z,11.42
2022-11-08T17:43:02.817Z,11.29
2022-11-08T17:48:25.522Z,11.19
2022-11-08T17:53:47.404Z,11.08
2022-11-08T17:59:09.207Z,11.07
2022-11-08T18:04:31.137Z,10.93
2022-11-08T18:09:52.982Z,10.79
2022-11-08T18:15:14.838Z,10.70
2022-11-08T18:20:36.866Z,10.66
2022-11-08T18:25:58.963Z,10.60
2022-11-08T18:31:21.757Z,10.55
2022-11-08T18:36:43.573Z,10.42
2022-11-08T18:42:05.460Z,10.37
2022-11-08T18:47:27.288Z,10.38
2022-11-08T18:52:49.105Z,10.18
2022-11-08T18:58:11.096Z,10.07
2022-11-08T19:03:33.192Z,10.13
2022-11-08T19:08:55.053Z,9.96
2022-11-08T19:14:16.965Z,9.90
2022-11-08T19:19:38.771Z,9.87
2022-11-08T19:25:00.608Z,9.78
2022-11-08T19:30:22.758Z,9.72
2022-11-08T19:35:44.958Z,9.63
2022-11-08T19:41:09.429Z,9.55
2022-11-08T19:46:31.862Z,9.49
2022-11-08T19:51:54.095Z,9.43
2022-11-08T19:57:16.318Z,9.42
2022-11-08T20:02:38.503Z,9.36
2022-11-08T20:08:00.904Z,9.32
2022-11-08T20:13:23.087Z,9.17
2022-11-08T20:18:45.596Z,9.10
2022-11-08T20:24:08.649Z,9.14
2022-11-08T20:29:30.517Z,9.11
2022-11-08T20:34:52.386Z,9.08
2022-11-08T20:40:14.250Z,9.00
2022-11-08T20:45:39.576Z,8.94
2022-11-08T20:51:03.856Z,8.89
2022-11-08T20:56:26.528Z,8.88
2022-11-08T21:01:48.471Z,8.81
2022-11-08T21:12:52.179Z,8.64
2022-11-08T21:18:15.579Z,8.58
2022-11-08T21:23:39.264Z,8.47
2022-11-08T21:29:01.138Z,8.42
2022-11-08T21:34:25.027Z,8.35
2022-11-08T21:39:50.044Z,8.28
2022-11-08T21:45:11.889Z,8.29
2022-11-08T21:50:34.976Z,8.18
2022-11-08T21:55:58.040Z,8.18
2022-11-08T22:01:22.245Z,8.16
2022-11-08T22:06:47.879Z,8.17
2022-11-08T22:12:09.939Z,8.09
2022-11-08T22:17:31.816Z,8.15
2022-11-08T22:22:53.651Z,8.05
2022-11-08T22:28:15.653Z,7.96
2022-11-08T22:33:37.691Z,8.07
2022-11-08T22:38:59.770Z,8.01
2022-11-08T22:44:21.915Z,7.88
2022-11-08T22:49:45.165Z,7.86
2022-11-08T22:55:07.697Z,7.82
2022-11-08T23:00:29.693Z,7.77
2022-11-08T23:05:52.367Z,7.80
2022-11-08T23:11:14.353Z,7.72
2022-11-08T23:16:38.963Z,7.65
2022-11-08T23:22:01.765Z,7.66
2022-11-08T23:27:23.822Z,7.59
2022-11-08T23:32:48.186Z,7.50
2022-11-08T23:38:10.040Z,7.47
2022-11-08T23:43:31.873Z,7.47
2022-11-08T23:48:53.654Z,7.41
2022-11-08T23:54:15.910Z,7.35
2022-11-08T23:59:37.680Z,7.30
